sensor_id;sensor_type;location;lat;lon;timestamp;P1;durP1;ratioP1;P2;durP2;ratioP2
73150;SDS011;61354;50.758;6.106;2022-11-21T00:00:40;7.20;;;2.50;;
73150;SDS011;61354;50.758;6.106;2022-11-21T00:03:07;6.57;;;2.83;;
73150;SDS011;61354;50.758;6.106;2022-11-21T00:05:37;11.63;;;2.55;;
73150;SDS011;61354;50.758;6.106;2022-11-21T00:08:03;9.35;;;2.63;;
73150;SDS011;61354;50.758;6.106;2022-11-21T00:10:29;10.98;;;2.60;;
73150;SDS011;61354;50.758;6.106;2022-11-21T00:12:55;7.07;;;2.35;;
73150;SDS011;61354;50.758;6.106;2022-11-21T00:15:22;4.95;;;1.90;;
73150;SDS011;61354;50.758;6.106;2022-11-21T00:17:48;5.75;;;1.77;;
73150;SDS011;61354;50.758;6.106;2022-11-21T00:20:15;6.80;;;2.33;;
73150;SDS011;61354;50.758;6.106;2022-11-21T00:22:42;7.22;;;2.30;;
73150;SDS011;61354;50.758;6.106;2022-11-21T00:25:07;7.43;;;2.75;;
73150;SDS011;61354;50.758;6.106;2022-11-21T00:27:33;7.47;;;2.58;;
73150;SDS011;61354;50.758;6.106;2022-11-21T00:29:58;7.10;;;2.15;;
73150;SDS011;61354;50.758;6.106;2022-11-21T00:32:24;8.02;;;2.80;;
73150;SDS011;61354;50.758;6.106;2022-11-21T00:34:49;10.30;;;2.60;;
73150;SDS011;61354;50.758;6.106;2022-11-21T00:37:15;8.70;;;2.35;;
73150;SDS011;61354;50.758;6.106;2022-11-21T00:39:40;4.75;;;1.85;;
73150;SDS011;61354;50.758;6.106;2022-11-21T00:42:06;7.18;;;1.80;;
73150;SDS011;61354;50.758;6.106;2022-11-21T00:44:31;6.82;;;2.40;;
73150;SDS011;61354;50.758;6.106;2022-11-21T00:46:56;4.85;;;1.52;;
73150;SDS011;61354;50.758;6.106;2022-11-21T00:49:22;7.55;;;2.42;;
73150;SDS011;61354;50.758;6.106;2022-11-21T00:51:47;8.50;;;2.22;;
73150;SDS011;61354;50.758;6.106;2022-11-21T00:54:13;5.50;;;1.90;;
73150;SDS011;61354;50.758;6.106;2022-11-21T00:56:38;5.63;;;1.80;;
73150;SDS011;61354;50.758;6.106;2022-11-21T00:59:03;6.35;;;2.03;;
73150;SDS011;61354;50.758;6.106;2022-11-21T01:01:29;6.10;;;1.83;;
73150;SDS011;61354;50.758;6.106;2022-11-21T01:03:56;5.13;;;1.73;;
73150;SDS011;61354;50.758;6.106;2022-11-21T01:06:22;7.65;;;2.22;;
73150;SDS011;61354;50.758;6.106;2022-11-21T01:08:47;3.97;;;1.70;;
73150;SDS011;61354;50.758;6.106;2022-11-21T01:11:14;6.40;;;2.38;;
73150;SDS011;61354;50.758;6.106;2022-11-21T01:13:42;5.57;;;2.13;;
73150;SDS011;61354;50.758;6.106;2022-11-21T01:16:09;6.72;;;1.90;;
73150;SDS011;61354;50.758;6.106;2022-11-21T01:18:36;6.57;;;2.00;;
73150;SDS011;61354;50.758;6.106;2022-11-21T01:21:02;6.90;;;2.40;;
73150;SDS011;61354;50.758;6.106;2022-11-21T01:23:30;5.25;;;2.13;;
73150;SDS011;61354;50.758;6.106;2022-11-21T01:25:59;9.48;;;2.00;;
73150;SDS011;61354;50.758;6.106;2022-11-21T01:28:26;5.50;;;1.73;;
73150;SDS011;61354;50.758;6.106;2022-11-21T01:30:52;5.70;;;2.28;;
73150;SDS011;61354;50.758;6.106;2022-11-21T01:33:17;6.60;;;1.90;;
73150;SDS011;61354;50.758;6.106;2022-11-21T01:35:43;6.10;;;1.90;;
73150;SDS011;61354;50.758;6.106;2022-11-21T01:38:08;5.78;;;2.00;;
73150;SDS011;61354;50.758;6.106;2022-11-21T01:40:37;6.18;;;2.60;;
73150;SDS011;61354;50.758;6.106;2022-11-21T01:43:13;6.47;;;2.20;;
73150;SDS011;61354;50.758;6.106;2022-11-21T01:48:21;6.82;;;1.50;;
73150;SDS011;61354;50.758;6.106;2022-11-21T01:50:52;6.50;;;2.30;;
73150;SDS011;61354;50.758;6.106;2022-11-21T01:53:20;3.42;;;1.73;;
73150;SDS011;61354;50.758;6.106;2022-11-21T01:55:47;7.40;;;1.60;;
73150;SDS011;61354;50.758;6.106;2022-11-21T01:58:13;6.97;;;2.00;;
73150;SDS011;61354;50.758;6.106;2022-11-21T02:00:39;3.50;;;1.92;;
73150;SDS011;61354;50.758;6.106;2022-11-21T02:03:07;4.30;;;1.67;;
73150;SDS011;61354;50.758;6.106;2022-11-21T02:05:36;5.53;;;1.88;;
73150;SDS011;61354;50.758;6.106;2022-11-21T02:08:13;6.40;;;1.90;;
73150;SDS011;61354;50.758;6.106;2022-11-21T02:13:51;7.10;;;2.55;;
73150;SDS011;61354;50.758;6.106;2022-11-21T02:16:17;5.95;;;2.17;;
73150;SDS011;61354;50.758;6.106;2022-11-21T02:18:42;7.47;;;2.55;;
73150;SDS011;61354;50.758;6.106;2022-11-21T02:24:02;5.78;;;2.15;;
73150;SDS011;61354;50.758;6.106;2022-11-21T02:26:36;6.95;;;2.38;;
73150;SDS011;61354;50.758;6.106;2022-11-21T02:29:02;5.68;;;2.25;;
73150;SDS011;61354;50.758;6.106;2022-11-21T02:31:27;4.65;;;1.90;;
73150;SDS011;61354;50.758;6.106;2022-11-21T02:33:53;7.63;;;2.40;;
73150;SDS011;61354;50.758;6.106;2022-11-21T02:39:02;7.28;;;3.33;;
73150;SDS011;61354;50.758;6.106;2022-11-21T02:41:30;6.15;;;3.33;;
73150;SDS011;61354;50.758;6.106;2022-11-21T02:44:07;7.95;;;2.90;;
73150;SDS011;61354;50.758;6.106;2022-11-21T02:46:36;7.72;;;3.30;;
73150;SDS011;61354;50.758;6.106;2022-11-21T02:49:12;5.07;;;2.85;;
73150;SDS011;61354;50.758;6.106;2022-11-21T02:51:37;6.70;;;3.20;;
73150;SDS011;61354;50.758;6.106;2022-11-21T02:54:03;7.05;;;3.80;;
73150;SDS011;61354;50.758;6.106;2022-11-21T02:56:28;6.40;;;3.35;;
73150;SDS011;61354;50.758;6.106;2022-11-21T02:58:54;7.47;;;3.40;;
73150;SDS011;61354;50.758;6.106;2022-11-21T03:01:19;7.30;;;3.25;;
73150;SDS011;61354;50.758;6.106;2022-11-21T03:03:44;5.65;;;3.15;;
73150;SDS011;61354;50.758;6.106;2022-11-21T03:06:10;6.75;;;4.15;;
73150;SDS011;61354;50.758;6.106;2022-11-21T03:08:35;8.25;;;3.35;;
73150;SDS011;61354;50.758;6.106;2022-11-21T03:11:01;6.35;;;3.40;;
73150;SDS011;61354;50.758;6.106;2022-11-21T03:13:26;6.95;;;3.15;;
73150;SDS011;61354;50.758;6.106;2022-11-21T03:15:51;8.55;;;3.63;;
73150;SDS011;61354;50.758;6.106;2022-11-21T03:18:19;6.90;;;3.75;;
73150;SDS011;61354;50.758;6.106;2022-11-21T03:20:44;9.20;;;4.00;;
73150;SDS011;61354;50.758;6.106;2022-11-21T03:23:10;8.57;;;3.72;;
73150;SDS011;61354;50.758;6.106;2022-11-21T03:25:35;4.82;;;2.65;;
73150;SDS011;61354;50.758;6.106;2022-11-21T03:28:01;6.57;;;3.03;;
73150;SDS011;61354;50.758;6.106;2022-11-21T03:30:26;8.00;;;3.92;;
73150;SDS011;61354;50.758;6.106;2022-11-21T03:32:55;6.78;;;3.63;;
73150;SDS011;61354;50.758;6.106;2022-11-21T03:35:21;7.43;;;4.18;;
73150;SDS011;61354;50.758;6.106;2022-11-21T03:37:47;7.20;;;4.38;;
73150;SDS011;61354;50.758;6.106;2022-11-21T03:40:13;7.85;;;3.63;;
73150;SDS011;61354;50.758;6.106;2022-11-21T03:42:38;8.60;;;4.07;;
73150;SDS011;61354;50.758;6.106;2022-11-21T03:45:04;7.50;;;3.50;;
73150;SDS011;61354;50.758;6.106;2022-11-21T03:47:30;6.93;;;3.60;;
73150;SDS011;61354;50.758;6.106;2022-11-21T03:49:55;7.78;;;3.38;;
73150;SDS011;61354;50.758;6.106;2022-11-21T03:52:21;6.50;;;3.53;;
73150;SDS011;61354;50.758;6.106;2022-11-21T03:54:46;7.55;;;3.08;;
73150;SDS011;61354;50.758;6.106;2022-11-21T03:57:12;7.93;;;3.05;;
73150;SDS011;61354;50.758;6.106;2022-11-21T03:59:37;6.55;;;3.00;;
73150;SDS011;61354;50.758;6.106;2022-11-21T04:02:02;6.15;;;2.90;;
73150;SDS011;61354;50.758;6.106;2022-11-21T04:04:28;7.72;;;3.15;;
73150;SDS011;61354;50.758;6.106;2022-11-21T04:06:53;7.95;;;3.25;;
73150;SDS011;61354;50.758;6.106;2022-11-21T04:09:19;6.00;;;3.63;;
73150;SDS011;61354;50.758;6.106;2022-11-21T04:11:44;7.78;;;3.42;;
73150;SDS011;61354;50.758;6.106;2022-11-21T04:14:10;6.60;;;3.72;;
73150;SDS011;61354;50.758;6.106;2022-11-21T04:16:35;7.85;;;3.80;;
73150;SDS011;61354;50.758;6.106;2022-11-21T04:19:01;5.60;;;3.35;;
73150;SDS011;61354;50.758;6.106;2022-11-21T04:21:26;8.10;;;3.72;;
73150;SDS011;61354;50.758;6.106;2022-11-21T04:23:51;8.07;;;3.63;;
73150;SDS011;61354;50.758;6.106;2022-11-21T04:26:17;6.15;;;3.50;;
73150;SDS011;61354;50.758;6.106;2022-11-21T04:28:42;7.63;;;3.53;;
73150;SDS011;61354;50.758;6.106;2022-11-21T04:31:08;5.20;;;2.85;;
73150;SDS011;61354;50.758;6.106;2022-11-21T04:33:34;5.38;;;2.70;;
73150;SDS011;61354;50.758;6.106;2022-11-21T04:35:59;6.40;;;3.22;;
73150;SDS011;61354;50.758;6.106;2022-11-21T04:38:25;10.63;;;3.72;;
73150;SDS011;61354;50.758;6.106;2022-11-21T04:40:51;5.50;;;2.47;;
73150;SDS011;61354;50.758;6.106;2022-11-21T04:43:16;6.25;;;2.75;;
73150;SDS011;61354;50.758;6.106;2022-11-21T04:45:43;5.80;;;2.97;;
73150;SDS011;61354;50.758;6.106;2022-11-21T04:48:09;5.10;;;3.22;;
73150;SDS011;61354;50.758;6.106;2022-11-21T04:50:35;5.32;;;2.88;;
73150;SDS011;61354;50.758;6.106;2022-11-21T04:53:01;4.07;;;2.83;;
73150;SDS011;61354;50.758;6.106;2022-11-21T04:55:27;6.10;;;3.08;;
73150;SDS011;61354;50.758;6.106;2022-11-21T04:57:55;6.05;;;2.80;;
73150;SDS011;61354;50.758;6.106;2022-11-21T05:00:20;5.97;;;3.25;;
73150;SDS011;61354;50.758;6.106;2022-11-21T05:02:45;5.18;;;3.00;;
73150;SDS011;61354;50.758;6.106;2022-11-21T05:05:11;5.65;;;3.28;;
73150;SDS011;61354;50.758;6.106;2022-11-21T05:07:37;5.38;;;3.40;;
73150;SDS011;61354;50.758;6.106;2022-11-21T05:10:03;6.88;;;4.15;;
73150;SDS011;61354;50.758;6.106;2022-11-21T05:12:30;7.35;;;3.25;;
73150;SDS011;61354;50.758;6.106;2022-11-21T05:15:14;6.97;;;3.55;;
73150;SDS011;61354;50.758;6.106;2022-11-21T05:17:39;7.10;;;3.65;;
73150;SDS011;61354;50.758;6.106;2022-11-21T05:20:05;6.85;;;3.75;;
73150;SDS011;61354;50.758;6.106;2022-11-21T05:22:31;7.40;;;3.58;;
73150;SDS011;61354;50.758;6.106;2022-11-21T05:24:56;8.00;;;4.18;;
73150;SDS011;61354;50.758;6.106;2022-11-21T05:27:21;6.93;;;3.95;;
73150;SDS011;61354;50.758;6.106;2022-11-21T05:29:47;9.10;;;3.83;;
73150;SDS011;61354;50.758;6.106;2022-11-21T05:32:12;6.45;;;3.83;;
73150;SDS011;61354;50.758;6.106;2022-11-21T05:34:38;6.57;;;3.33;;
73150;SDS011;61354;50.758;6.106;2022-11-21T05:37:03;5.75;;;3.20;;
73150;SDS011;61354;50.758;6.106;2022-11-21T05:39:29;9.05;;;4.07;;
73150;SDS011;61354;50.758;6.106;2022-11-21T05:41:54;5.85;;;3.30;;
73150;SDS011;61354;50.758;6.106;2022-11-21T05:44:20;5.43;;;3.70;;
73150;SDS011;61354;50.758;6.106;2022-11-21T05:46:45;4.78;;;3.03;;
73150;SDS011;61354;50.758;6.106;2022-11-21T05:49:11;7.32;;;3.88;;
73150;SDS011;61354;50.758;6.106;2022-11-21T05:51:36;5.60;;;2.90;;
73150;SDS011;61354;50.758;6.106;2022-11-21T05:54:02;6.53;;;3.42;;
73150;SDS011;61354;50.758;6.106;2022-11-21T05:56:28;7.10;;;3.08;;
73150;SDS011;61354;50.758;6.106;2022-11-21T05:58:54;6.65;;;2.83;;
73150;SDS011;61354;50.758;6.106;2022-11-21T06:01:21;5.65;;;2.53;;
73150;SDS011;61354;50.758;6.106;2022-11-21T06:04:05;5.03;;;2.83;;
73150;SDS011;61354;50.758;6.106;2022-11-21T06:06:31;6.88;;;3.25;;
73150;SDS011;61354;50.758;6.106;2022-11-21T06:08:57;4.38;;;2.88;;
73150;SDS011;61354;50.758;6.106;2022-11-21T06:11:23;5.95;;;3.05;;
73150;SDS011;61354;50.758;6.106;2022-11-21T06:13:48;8.43;;;3.80;;
73150;SDS011;61354;50.758;6.106;2022-11-21T06:16:14;6.35;;;3.30;;
73150;SDS011;61354;50.758;6.106;2022-11-21T06:21:16;6.80;;;3.42;;
73150;SDS011;61354;50.758;6.106;2022-11-21T06:23:42;6.63;;;3.85;;
73150;SDS011;61354;50.758;6.106;2022-11-21T06:26:10;6.22;;;4.07;;
73150;SDS011;61354;50.758;6.106;2022-11-21T06:28:38;7.43;;;4.10;;
73150;SDS011;61354;50.758;6.106;2022-11-21T06:31:06;8.48;;;4.30;;
73150;SDS011;61354;50.758;6.106;2022-11-21T06:33:39;6.88;;;3.88;;
73150;SDS011;61354;50.758;6.106;2022-11-21T06:36:09;7.70;;;4.85;;
73150;SDS011;61354;50.758;6.106;2022-11-21T06:38:36;8.73;;;4.60;;
73150;SDS011;61354;50.758;6.106;2022-11-21T06:41:05;7.68;;;4.50;;
73150;SDS011;61354;50.758;6.106;2022-11-21T06:43:32;9.40;;;5.25;;
73150;SDS011;61354;50.758;6.106;2022-11-21T06:45:57;10.50;;;5.63;;
73150;SDS011;61354;50.758;6.106;2022-11-21T06:48:23;8.90;;;5.25;;
73150;SDS011;61354;50.758;6.106;2022-11-21T06:50:49;9.02;;;5.43;;
73150;SDS011;61354;50.758;6.106;2022-11-21T06:53:15;8.70;;;5.07;;
73150;SDS011;61354;50.758;6.106;2022-11-21T06:55:40;11.85;;;5.28;;
73150;SDS011;61354;50.758;6.106;2022-11-21T06:58:06;9.48;;;5.55;;
73150;SDS011;61354;50.758;6.106;2022-11-21T07:00:31;9.68;;;5.38;;
73150;SDS011;61354;50.758;6.106;2022-11-21T07:03:00;8.05;;;5.45;;
73150;SDS011;61354;50.758;6.106;2022-11-21T07:05:27;11.50;;;5.68;;
73150;SDS011;61354;50.758;6.106;2022-11-21T07:07:57;7.95;;;4.78;;
73150;SDS011;61354;50.758;6.106;2022-11-21T07:10:23;7.90;;;4.60;;
73150;SDS011;61354;50.758;6.106;2022-11-21T07:12:49;11.48;;;5.88;;
73150;SDS011;61354;50.758;6.106;2022-11-21T07:15:33;12.43;;;5.35;;
73150;SDS011;61354;50.758;6.106;2022-11-21T07:17:59;5.70;;;4.72;;
73150;SDS011;61354;50.758;6.106;2022-11-21T07:20:24;8.70;;;4.70;;
73150;SDS011;61354;50.758;6.106;2022-11-21T07:22:53;7.28;;;4.38;;
73150;SDS011;61354;50.758;6.106;2022-11-21T07:25:20;8.48;;;4.53;;
73150;SDS011;61354;50.758;6.106;2022-11-21T07:27:45;8.13;;;4.97;;
73150;SDS011;61354;50.758;6.106;2022-11-21T07:30:11;7.75;;;4.55;;
73150;SDS011;61354;50.758;6.106;2022-11-21T07:32:37;8.75;;;4.70;;
73150;SDS011;61354;50.758;6.106;2022-11-21T07:35:02;8.30;;;4.20;;
73150;SDS011;61354;50.758;6.106;2022-11-21T07:37:28;7.93;;;4.35;;
73150;SDS011;61354;50.758;6.106;2022-11-21T07:39:54;7.68;;;4.13;;
73150;SDS011;61354;50.758;6.106;2022-11-21T07:42:19;8.27;;;4.32;;
73150;SDS011;61354;50.758;6.106;2022-11-21T07:44:44;6.38;;;3.72;;
73150;SDS011;61354;50.758;6.106;2022-11-21T07:47:10;5.70;;;3.67;;
73150;SDS011;61354;50.758;6.106;2022-11-21T07:49:35;5.70;;;3.63;;
73150;SDS011;61354;50.758;6.106;2022-11-21T07:52:01;5.50;;;3.08;;
73150;SDS011;61354;50.758;6.106;2022-11-21T07:54:26;7.07;;;3.28;;
73150;SDS011;61354;50.758;6.106;2022-11-21T07:56:52;7.05;;;2.70;;
73150;SDS011;61354;50.758;6.106;2022-11-21T07:59:17;5.97;;;3.13;;
73150;SDS011;61354;50.758;6.106;2022-11-21T08:01:43;4.85;;;3.15;;
73150;SDS011;61354;50.758;6.106;2022-11-21T08:04:09;5.25;;;2.95;;
73150;SDS011;61354;50.758;6.106;2022-11-21T08:06:34;4.93;;;2.70;;
73150;SDS011;61354;50.758;6.106;2022-11-21T08:08:59;5.78;;;3.00;;
73150;SDS011;61354;50.758;6.106;2022-11-21T08:11:25;7.13;;;2.92;;
73150;SDS011;61354;50.758;6.106;2022-11-21T08:13:50;6.70;;;2.83;;
73150;SDS011;61354;50.758;6.106;2022-11-21T08:16:16;5.68;;;2.60;;
73150;SDS011;61354;50.758;6.106;2022-11-21T08:18:41;6.93;;;2.88;;
73150;SDS011;61354;50.758;6.106;2022-11-21T08:21:07;4.75;;;2.60;;
73150;SDS011;61354;50.758;6.106;2022-11-21T08:23:32;5.72;;;2.67;;
73150;SDS011;61354;50.758;6.106;2022-11-21T08:25:57;4.97;;;2.42;;
73150;SDS011;61354;50.758;6.106;2022-11-21T08:28:23;5.60;;;2.40;;
73150;SDS011;61354;50.758;6.106;2022-11-21T08:30:48;6.53;;;2.63;;
73150;SDS011;61354;50.758;6.106;2022-11-21T08:33:14;5.30;;;2.55;;
73150;SDS011;61354;50.758;6.106;2022-11-21T08:35:39;6.10;;;2.50;;
73150;SDS011;61354;50.758;6.106;2022-11-21T08:38:06;5.53;;;2.20;;
73150;SDS011;61354;50.758;6.106;2022-11-21T08:40:32;4.00;;;2.25;;
73150;SDS011;61354;50.758;6.106;2022-11-21T08:43:04;5.38;;;2.15;;
73150;SDS011;61354;50.758;6.106;2022-11-21T08:45:32;5.60;;;2.03;;
73150;SDS011;61354;50.758;6.106;2022-11-21T08:47:58;5.18;;;2.03;;
73150;SDS011;61354;50.758;6.106;2022-11-21T08:50:24;4.97;;;2.08;;
73150;SDS011;61354;50.758;6.106;2022-11-21T08:52:50;5.15;;;2.03;;
73150;SDS011;61354;50.758;6.106;2022-11-21T08:55:16;4.45;;;2.10;;
73150;SDS011;61354;50.758;6.106;2022-11-21T08:57:42;3.20;;;1.77;;
73150;SDS011;61354;50.758;6.106;2022-11-21T09:00:08;4.07;;;1.75;;
73150;SDS011;61354;50.758;6.106;2022-11-21T09:02:38;2.92;;;1.52;;
73150;SDS011;61354;50.758;6.106;2022-11-21T09:05:04;3.13;;;1.65;;
73150;SDS011;61354;50.758;6.106;2022-11-21T09:07:29;4.72;;;2.05;;
73150;SDS011;61354;50.758;6.106;2022-11-21T09:09:55;3.92;;;1.40;;
73150;SDS011;61354;50.758;6.106;2022-11-21T09:12:20;3.78;;;1.50;;
73150;SDS011;61354;50.758;6.106;2022-11-21T09:14:46;2.20;;;1.33;;
73150;SDS011;61354;50.758;6.106;2022-11-21T09:17:30;2.42;;;1.65;;
73150;SDS011;61354;50.758;6.106;2022-11-21T09:20:14;3.63;;;1.88;;
73150;SDS011;61354;50.758;6.106;2022-11-21T09:22:39;2.88;;;1.38;;
73150;SDS011;61354;50.758;6.106;2022-11-21T09:25:05;4.00;;;1.67;;
73150;SDS011;61354;50.758;6.106;2022-11-21T09:27:31;3.70;;;1.65;;
73150;SDS011;61354;50.758;6.106;2022-11-21T09:29:56;4.72;;;1.50;;
73150;SDS011;61354;50.758;6.106;2022-11-21T09:32:22;2.53;;;1.25;;
73150;SDS011;61354;50.758;6.106;2022-11-21T09:34:47;5.03;;;1.50;;
73150;SDS011;61354;50.758;6.106;2022-11-21T09:37:13;4.78;;;1.80;;
73150;SDS011;61354;50.758;6.106;2022-11-21T09:39:39;3.38;;;1.35;;
73150;SDS011;61354;50.758;6.106;2022-11-21T09:47:46;3.90;;;1.35;;
73150;SDS011;61354;50.758;6.106;2022-11-21T09:52:42;4.53;;;1.45;;
73150;SDS011;61354;50.758;6.106;2022-11-21T09:55:28;5.80;;;1.48;;
73150;SDS011;61354;50.758;6.106;2022-11-21T09:58:03;4.70;;;1.48;;
73150;SDS011;61354;50.758;6.106;2022-11-21T10:00:33;3.15;;;1.20;;
73150;SDS011;61354;50.758;6.106;2022-11-21T10:02:59;2.65;;;1.27;;
73150;SDS011;61354;50.758;6.106;2022-11-21T10:05:35;2.72;;;1.27;;
73150;SDS011;61354;50.758;6.106;2022-11-21T10:08:14;2.33;;;1.02;;
73150;SDS011;61354;50.758;6.106;2022-11-21T10:13:27;2.83;;;1.27;;
73150;SDS011;61354;50.758;6.106;2022-11-21T10:22:16;3.00;;;1.10;;
73150;SDS011;61354;50.758;6.106;2022-11-21T10:24:56;3.30;;;1.35;;
73150;SDS011;61354;50.758;6.106;2022-11-21T10:27:31;2.72;;;1.17;;
73150;SDS011;61354;50.758;6.106;2022-11-21T10:32:41;4.82;;;1.48;;
73150;SDS011;61354;50.758;6.106;2022-11-21T10:43:00;1.70;;;0.80;;
73150;SDS011;61354;50.758;6.106;2022-11-21T10:46:08;1.75;;;0.90;;
73150;SDS011;61354;50.758;6.106;2022-11-21T10:48:34;2.15;;;0.80;;
73150;SDS011;61354;50.758;6.106;2022-11-21T10:53:37;0.73;;;0.70;;
73150;SDS011;61354;50.758;6.106;2022-11-21T10:56:21;3.60;;;1.08;;
73150;SDS011;61354;50.758;6.106;2022-11-21T10:58:55;3.67;;;0.90;;
73150;SDS011;61354;50.758;6.106;2022-11-21T11:06:34;2.75;;;0.70;;
73150;SDS011;61354;50.758;6.106;2022-11-21T11:09:03;2.35;;;0.85;;
73150;SDS011;61354;50.758;6.106;2022-11-21T11:11:29;0.73;;;0.70;;
73150;SDS011;61354;50.758;6.106;2022-11-21T11:14:03;1.75;;;0.70;;
73150;SDS011;61354;50.758;6.106;2022-11-21T11:16:31;1.17;;;0.70;;
73150;SDS011;61354;50.758;6.106;2022-11-21T11:27:17;3.92;;;1.00;;
73150;SDS011;61354;50.758;6.106;2022-11-21T11:29:31;2.35;;;1.15;;
73150;SDS011;61354;50.758;6.106;2022-11-21T11:34:35;2.08;;;0.90;;
73150;SDS011;61354;50.758;6.106;2022-11-21T11:37:12;4.35;;;1.00;;
73150;SDS011;61354;50.758;6.106;2022-11-21T11:39:55;2.17;;;1.02;;
73150;SDS011;61354;50.758;6.106;2022-11-21T11:48:43;2.15;;;1.00;;
73150;SDS011;61354;50.758;6.106;2022-11-21T11:51:17;2.33;;;1.00;;
73150;SDS011;61354;50.758;6.106;2022-11-21T11:53:52;2.90;;;1.15;;
73150;SDS011;61354;50.758;6.106;2022-11-21T11:56:30;1.35;;;0.85;;
73150;SDS011;61354;50.758;6.106;2022-11-21T12:01:51;1.90;;;1.10;;
73150;SDS011;61354;50.758;6.106;2022-11-21T12:04:22;2.20;;;1.17;;
73150;SDS011;61354;50.758;6.106;2022-11-21T12:07:03;1.48;;;1.00;;
73150;SDS011;61354;50.758;6.106;2022-11-21T12:09:46;2.70;;;1.05;;
73150;SDS011;61354;50.758;6.106;2022-11-21T12:12:34;5.15;;;1.20;;
73150;SDS011;61354;50.758;6.106;2022-11-21T12:23:10;4.03;;;1.13;;
73150;SDS011;61354;50.758;6.106;2022-11-21T12:25:39;2.95;;;1.00;;
73150;SDS011;61354;50.758;6.106;2022-11-21T12:28:17;1.02;;;0.80;;
73150;SDS011;61354;50.758;6.106;2022-11-21T12:30:54;3.88;;;1.15;;
73150;SDS011;61354;50.758;6.106;2022-11-21T12:33:41;2.97;;;0.98;;
73150;SDS011;61354;50.758;6.106;2022-11-21T12:36:42;3.97;;;1.10;;
73150;SDS011;61354;50.758;6.106;2022-11-21T12:42:27;4.78;;;1.55;;
73150;SDS011;61354;50.758;6.106;2022-11-21T12:48:16;5.53;;;1.63;;
73150;SDS011;61354;50.758;6.106;2022-11-21T12:57:04;2.17;;;1.17;;
73150;SDS011;61354;50.758;6.106;2022-11-21T12:59:39;3.70;;;1.20;;
73150;SDS011;61354;50.758;6.106;2022-11-21T13:02:16;3.55;;;1.20;;
73150;SDS011;61354;50.758;6.106;2022-11-21T13:04:43;5.30;;;1.48;;
73150;SDS011;61354;50.758;6.106;2022-11-21T13:07:11;3.67;;;1.23;;
73150;SDS011;61354;50.758;6.106;2022-11-21T13:09:40;6.90;;;1.42;;
73150;SDS011;61354;50.758;6.106;2022-11-21T13:12:15;7.10;;;1.73;;
73150;SDS011;61354;50.758;6.106;2022-11-21T13:14:54;4.50;;;1.33;;
73150;SDS011;61354;50.758;6.106;2022-11-21T13:20:45;4.80;;;1.30;;
73150;SDS011;61354;50.758;6.106;2022-11-21T13:26:43;3.38;;;1.40;;
73150;SDS011;61354;50.758;6.106;2022-11-21T13:29:14;5.43;;;1.60;;
73150;SDS011;61354;50.758;6.106;2022-11-21T13:31:40;3.75;;;1.35;;
73150;SDS011;61354;50.758;6.106;2022-11-21T13:37:02;4.93;;;1.55;;
73150;SDS011;61354;50.758;6.106;2022-11-21T13:41:58;6.05;;;1.90;;
73150;SDS011;61354;50.758;6.106;2022-11-21T13:44:49;3.80;;;1.42;;
73150;SDS011;61354;50.758;6.106;2022-11-21T13:49:59;7.82;;;1.30;;
73150;SDS011;61354;50.758;6.106;2022-11-21T13:53:30;4.85;;;1.23;;
73150;SDS011;61354;50.758;6.106;2022-11-21T14:07:31;5.55;;;1.63;;
73150;SDS011;61354;50.758;6.106;2022-11-21T14:09:58;5.50;;;1.42;;
73150;SDS011;61354;50.758;6.106;2022-11-21T14:25:22;4.97;;;1.42;;
73150;SDS011;61354;50.758;6.106;2022-11-21T14:27:53;5.57;;;1.33;;
73150;SDS011;61354;50.758;6.106;2022-11-21T14:30:27;7.10;;;1.92;;
73150;SDS011;61354;50.758;6.106;2022-11-21T14:33:15;7.95;;;1.70;;
73150;SDS011;61354;50.758;6.106;2022-11-21T14:35:46;6.75;;;1.38;;
73150;SDS011;61354;50.758;6.106;2022-11-21T14:38:13;4.43;;;1.52;;
73150;SDS011;61354;50.758;6.106;2022-11-21T14:40:39;2.25;;;1.42;;
73150;SDS011;61354;50.758;6.106;2022-11-21T14:43:22;3.85;;;2.10;;
73150;SDS011;61354;50.758;6.106;2022-11-21T14:45:53;6.28;;;2.05;;
73150;SDS011;61354;50.758;6.106;2022-11-21T14:48:23;6.97;;;1.88;;
73150;SDS011;61354;50.758;6.106;2022-11-21T14:50:58;5.55;;;1.60;;
73150;SDS011;61354;50.758;6.106;2022-11-21T14:53:25;3.17;;;1.45;;
73150;SDS011;61354;50.758;6.106;2022-11-21T14:55:52;5.43;;;1.70;;
73150;SDS011;61354;50.758;6.106;2022-11-21T14:58:18;3.17;;;1.60;;
73150;SDS011;61354;50.758;6.106;2022-11-21T15:03:28;6.28;;;1.52;;
73150;SDS011;61354;50.758;6.106;2022-11-21T15:05:57;6.53;;;1.50;;
73150;SDS011;61354;50.758;6.106;2022-11-21T15:08:26;5.32;;;1.65;;
73150;SDS011;61354;50.758;6.106;2022-11-21T15:10:52;4.45;;;2.00;;
73150;SDS011;61354;50.758;6.106;2022-11-21T15:13:20;6.90;;;2.80;;
73150;SDS011;61354;50.758;6.106;2022-11-21T15:15:50;6.15;;;2.38;;
73150;SDS011;61354;50.758;6.106;2022-11-21T15:18:21;5.68;;;2.70;;
73150;SDS011;61354;50.758;6.106;2022-11-21T15:20:52;12.48;;;5.20;;
73150;SDS011;61354;50.758;6.106;2022-11-21T15:23:32;7.55;;;2.63;;
73150;SDS011;61354;50.758;6.106;2022-11-21T15:26:00;6.15;;;1.98;;
73150;SDS011;61354;50.758;6.106;2022-11-21T15:28:27;7.95;;;2.13;;
73150;SDS011;61354;50.758;6.106;2022-11-21T15:36:25;8.02;;;2.17;;
73150;SDS011;61354;50.758;6.106;2022-11-21T15:38:55;5.07;;;1.83;;
73150;SDS011;61354;50.758;6.106;2022-11-21T15:41:42;4.65;;;1.90;;
73150;SDS011;61354;50.758;6.106;2022-11-21T15:46:33;5.60;;;2.00;;
73150;SDS011;61354;50.758;6.106;2022-11-21T15:49:10;4.38;;;2.22;;
73150;SDS011;61354;50.758;6.106;2022-11-21T15:51:38;5.57;;;2.13;;
73150;SDS011;61354;50.758;6.106;2022-11-21T15:54:06;5.60;;;1.95;;
73150;SDS011;61354;50.758;6.106;2022-11-21T15:56:35;4.13;;;1.85;;
73150;SDS011;61354;50.758;6.106;2022-11-21T15:59:00;4.35;;;1.70;;
73150;SDS011;61354;50.758;6.106;2022-11-21T16:01:27;3.92;;;1.75;;
73150;SDS011;61354;50.758;6.106;2022-11-21T16:03:55;4.68;;;1.83;;
73150;SDS011;61354;50.758;6.106;2022-11-21T16:06:22;6.43;;;1.92;;
73150;SDS011;61354;50.758;6.106;2022-11-21T16:08:48;8.05;;;2.05;;
73150;SDS011;61354;50.758;6.106;2022-11-21T16:11:22;3.95;;;1.70;;
73150;SDS011;61354;50.758;6.106;2022-11-21T16:13:59;7.35;;;3.58;;
73150;SDS011;61354;50.758;6.106;2022-11-21T16:16:29;6.13;;;2.72;;
73150;SDS011;61354;50.758;6.106;2022-11-21T16:18:56;5.85;;;2.75;;
73150;SDS011;61354;50.758;6.106;2022-11-21T16:21:22;5.28;;;2.17;;
73150;SDS011;61354;50.758;6.106;2022-11-21T16:23:48;6.15;;;2.30;;
73150;SDS011;61354;50.758;6.106;2022-11-21T16:26:14;5.97;;;2.33;;
73150;SDS011;61354;50.758;6.106;2022-11-21T16:28:39;5.68;;;2.28;;
73150;SDS011;61354;50.758;6.106;2022-11-21T16:31:05;6.35;;;2.47;;
73150;SDS011;61354;50.758;6.106;2022-11-21T16:33:31;7.80;;;2.78;;
73150;SDS011;61354;50.758;6.106;2022-11-21T16:35:58;5.88;;;2.13;;
73150;SDS011;61354;50.758;6.106;2022-11-21T16:38:24;5.05;;;2.50;;
73150;SDS011;61354;50.758;6.106;2022-11-21T16:40:53;6.85;;;3.05;;
73150;SDS011;61354;50.758;6.106;2022-11-21T16:43:24;7.35;;;3.08;;
73150;SDS011;61354;50.758;6.106;2022-11-21T16:45:50;8.88;;;2.53;;
73150;SDS011;61354;50.758;6.106;2022-11-21T16:48:17;6.25;;;2.53;;
73150;SDS011;61354;50.758;6.106;2022-11-21T16:50:46;5.30;;;2.20;;
73150;SDS011;61354;50.758;6.106;2022-11-21T16:53:11;6.40;;;2.90;;
73150;SDS011;61354;50.758;6.106;2022-11-21T16:55:37;8.80;;;3.13;;
73150;SDS011;61354;50.758;6.106;2022-11-21T16:58:03;6.07;;;3.05;;
73150;SDS011;61354;50.758;6.106;2022-11-21T17:00:29;4.30;;;1.85;;
73150;SDS011;61354;50.758;6.106;2022-11-21T17:02:55;4.30;;;1.77;;
73150;SDS011;61354;50.758;6.106;2022-11-21T17:05:21;5.30;;;1.58;;
73150;SDS011;61354;50.758;6.106;2022-11-21T17:07:46;4.65;;;1.48;;
73150;SDS011;61354;50.758;6.106;2022-11-21T17:10:12;5.60;;;1.88;;
73150;SDS011;61354;50.758;6.106;2022-11-21T17:12:39;4.97;;;2.03;;
73150;SDS011;61354;50.758;6.106;2022-11-21T17:15:06;5.22;;;2.08;;